Time;durP1;ratioP1;P1;durP2;ratioP2;P2;SDS_P1;SDS_P2;PMS_P1;PMS_P2;Temp;Humidity;BMP_temperature;BMP_pressure;BME280_temperature;BME280_humidity;BME280_pressure;Samples;Min_cycle;Max_cycle;Signal;HPM_P1;HPM_P2
2021/09/24 00:02:20;;;;;;;0.30;0.30;;;16.30;52.90;;;;;;4854730;28;20194;-73
2021/09/24 00:04:43;;;;;;;0.10;0.10;;;;;;;;;;4855881;28;20190;-72
2021/09/24 00:07:07;;;;;;;0.10;0.10;;;16.30;52.80;;;;;;4859370;28;20190;-73
2021/09/24 00:09:29;;;;;;;0.10;0.10;;;;;;;;;;4854809;28;20182;-73
2021/09/24 00:11:52;;;;;;;0.20;0.20;;;;;;;;;;4859613;28;20208;-72
2021/09/24 00:14:15;;;;;;;0.10;0.10;;;;;;;;;;4852497;28;20193;-75
2021/09/24 00:16:39;;;;;;;0.10;0.10;;;16.30;52.80;;;;;;4856970;28;20226;-72
2021/09/24 00:19:02;;;;;;;0.10;0.10;;;;;;;;;;4857393;28;20821;-75
2021/09/24 00:21:25;;;;;;;0.13;0.13;;;;;;;;;;4858750;28;20248;-73
2021/09/24 00:23:49;;;;;;;0.20;0.20;;;;;;;;;;4852845;28;20641;-79
2021/09/24 00:26:11;;;;;;;0.10;0.10;;;;;;;;;;4857204;28;20328;-73
2021/09/24 00:28:34;;;;;;;0.20;0.20;;;;;;;;;;4853731;28;20280;-73
2021/09/24 00:30:58;;;;;;;0.10;0.10;;;;;;;;;;4848263;28;20664;-73
2021/09/24 00:33:23;;;;;;;0.10;0.10;;;16.20;52.70;;;;;;4855406;28;20256;-73
2021/09/24 00:35:46;;;;;;;0.10;0.10;;;;;;;;;;4858184;28;20875;-72
2021/09/24 00:38:08;;;;;;;0.10;0.10;;;;;;;;;;4853912;28;20192;-73
2021/09/24 00:40:34;;;;;;;0.10;0.10;;;;;;;;;;4841239;28;20668;-76
2021/09/24 00:42:57;;;;;;;0.10;0.10;;;;;;;;;;4858604;28;20240;-74
2021/09/24 00:45:20;;;;;;;0.10;0.10;;;;;;;;;;4854596;28;20601;-76
2021/09/24 00:47:42;;;;;;;0.10;0.10;;;;;;;;;;4840915;28;20229;-74
2021/09/24 00:50:08;;;;;;;0.10;0.10;;;16.10;52.20;;;;;;4856966;28;20194;-75
2021/09/24 00:52:31;;;;;;;0.10;0.10;;;;;;;;;;4858444;28;20213;-73
2021/09/24 00:54:54;;;;;;;0.10;0.10;;;;;;;;;;4857184;28;20201;-73
2021/09/24 00:57:18;;;;;;;0.10;0.10;;;16.10;52.60;;;;;;4847284;28;20292;-73
2021/09/24 00:59:41;;;;;;;0.10;0.10;;;;;;;;;;4837961;28;20192;-78
2021/09/24 01:02:03;;;;;;;0.10;0.10;;;;;;;;;;4853231;28;20193;-76
2021/09/24 01:04:26;;;;;;;0.10;0.10;;;;;;;;;;4857833;28;20190;-74
2021/09/24 01:06:50;;;;;;;0.10;0.10;;;16.10;52.60;;;;;;4857936;28;20648;-76
2021/09/24 01:09:13;;;;;;;0.10;0.10;;;;;;;;;;4856568;28;20188;-74
2021/09/24 01:11:36;;;;;;;0.03;0.03;;;;;;;;;;4856525;28;20240;-74
2021/09/24 01:13:59;;;;;;;0.00;0.00;;;;;;;;;;4848269;28;20256;-74
2021/09/24 01:16:22;;;;;;;0.20;0.20;;;;;;;;;;4856473;28;20679;-74
2021/09/24 01:18:45;;;;;;;0.07;0.07;;;;;;;;;;4846133;28;20198;-74
2021/09/24 01:21:11;;;;;;;0.10;0.10;;;16.00;52.50;;;;;;4855309;28;20260;-74
2021/09/24 01:23:34;;;;;;;0.10;0.10;;;;;;;;;;4857856;28;20660;-74
2021/09/24 01:25:57;;;;;;;0.10;0.10;;;;;;;;;;4847825;28;20222;-73
2021/09/24 01:28:20;;;;;;;0.10;0.10;;;;;;;;;;4846326;28;20688;-74
2021/09/24 01:30:42;;;;;;;0.10;0.10;;;;;;;;;;4842984;28;20193;-73
2021/09/24 01:33:05;;;;;;;0.10;0.10;;;;;;;;;;4857438;28;20629;-73
2021/09/24 01:35:28;;;;;;;0.10;0.10;;;;;;;;;;4856209;28;20184;-75
2021/09/24 01:37:51;;;;;;;0.10;0.10;;;15.90;52.40;;;;;;4838438;28;20334;-75
2021/09/24 01:40:16;;;;;;;0.00;0.00;;;15.80;52.40;;;;;;4847456;28;20244;-73
2021/09/24 01:42:39;;;;;;;0.10;0.10;;;;;;;;;;4857487;28;20263;-73
2021/09/24 01:45:01;;;;;;;0.00;0.00;;;;;;;;;;4839621;28;20298;-73
2021/09/24 01:47:24;;;;;;;0.10;0.10;;;;;;;;;;4851210;28;20206;-75
2021/09/24 01:49:47;;;;;;;0.00;0.00;;;;;;;;;;4845861;28;20594;-74
2021/09/24 01:52:10;;;;;;;0.10;0.10;;;;;;;;;;4850350;28;20692;-74
2021/09/24 01:54:34;;;;;;;0.00;0.00;;;15.80;52.30;;;;;;4851239;28;20652;-75
2021/09/24 01:56:57;;;;;;;0.10;0.10;;;;;;;;;;4839453;28;20647;-79
2021/09/24 01:59:19;;;;;;;0.10;0.10;;;;;;;;;;4838697;28;20704;-80
2021/09/24 02:01:42;;;;;;;0.00;0.00;;;;;;;;;;4851885;28;20269;-75
2021/09/24 02:04:05;;;;;;;0.00;0.00;;;15.70;52.20;;;;;;4857473;28;20186;-73
2021/09/24 02:06:28;;;;;;;0.10;0.10;;;;;;;;;;4844743;28;20194;-82
2021/09/24 02:08:50;;;;;;;0.20;0.20;;;;;;;;;;4848908;28;20179;-81
2021/09/24 02:11:15;;;;;;;0.00;0.00;;;15.70;52.00;;;;;;4846189;28;20186;-78
2021/09/24 02:13:37;;;;;;;0.00;0.00;;;;;;;;;;4856935;28;20728;-75
2021/09/24 02:16:00;;;;;;;0.00;0.00;;;;;;;;;;4842262;28;20253;-78
2021/09/24 02:18:23;;;;;;;0.10;0.10;;;;;;;;;;4843871;28;20676;-76
2021/09/24 02:20:46;;;;;;;0.03;0.03;;;;;;;;;;4856314;28;20182;-79
2021/09/24 02:23:08;;;;;;;0.10;0.10;;;;;;;;;;4856480;28;20194;-81
2021/09/24 02:25:31;;;;;;;0.10;0.10;;;;;;;;;;4856626;28;20210;-80
2021/09/24 02:27:55;;;;;;;0.10;0.10;;;15.50;51.90;;;;;;4856313;28;20280;-80
2021/09/24 02:30:18;;;;;;;0.10;0.10;;;;;;;;;;4855954;28;20248;-80
2021/09/24 02:32:41;;;;;;;0.10;0.10;;;;;;;;;;4854967;28;20755;-75
2021/09/24 02:35:04;;;;;;;0.10;0.10;;;;;;;;;;4837939;28;20606;-77
2021/09/24 02:37:26;;;;;;;0.20;0.20;;;;;;;;;;4845261;28;20213;-78
2021/09/24 02:39:49;;;;;;;0.10;0.10;;;;;;;;;;4853479;28;20195;-79
2021/09/24 02:42:12;;;;;;;0.10;0.10;;;;;;;;;;4837346;28;20195;-79
2021/09/24 02:44:36;;;;;;;0.10;0.10;;;15.10;50.90;;;;;;4857565;28;20613;-80
2021/09/24 02:46:58;;;;;;;0.10;0.10;;;;;;;;;;4856628;28;20213;-78
2021/09/24 02:49:21;;;;;;;0.00;0.00;;;;;;;;;;4856647;28;20185;-80
2021/09/24 02:51:44;;;;;;;0.10;0.10;;;;;;;;;;4839735;28;20248;-76
2021/09/24 02:54:07;;;;;;;0.10;0.10;;;;;;;;;;4841880;28;20267;-80
2021/09/24 02:56:30;;;;;;;0.10;0.10;;;;;;;;;;4837390;28;20189;-77
2021/09/24 02:58:53;;;;;;;0.10;0.10;;;;;;;;;;4838741;28;20186;-78
2021/09/24 03:01:16;;;;;;;0.20;0.20;;;14.60;50.20;;;;;;4842545;28;20616;-73
2021/09/24 03:03:39;;;;;;;0.10;0.10;;;;;;;;;;4855668;28;20194;-76
2021/09/24 03:06:02;;;;;;;0.10;0.10;;;;;;;;;;4839572;28;20190;-74
2021/09/24 03:08:25;;;;;;;0.10;0.10;;;;;;;;;;4836948;28;20264;-74
2021/09/24 03:10:47;;;;;;;0.10;0.10;;;;;;;;;;4838654;28;20651;-74
2021/09/24 03:13:10;;;;;;;0.03;0.03;;;;;;;;;;4842111;28;20199;-74
2021/09/24 03:15:33;;;;;;;0.10;0.10;;;;;;;;;;4851252;28;20265;-76
2021/09/24 03:17:57;;;;;;;0.10;0.10;;;14.20;49.90;;;;;;4842600;28;20264;-73
2021/09/24 03:20:20;;;;;;;0.03;0.03;;;;;;;;;;4856432;28;20182;-73
2021/09/24 03:22:43;;;;;;;0.00;0.00;;;14.10;49.90;;;;;;4837068;28;20998;-73
2021/09/24 03:25:07;;;;;;;0.07;0.07;;;14.10;49.90;;;;;;4840282;28;20190;-74
2021/09/24 03:27:30;;;;;;;0.10;0.10;;;;;;;;;;4848981;28;20281;-73
2021/09/24 03:29:53;;;;;;;0.00;0.00;;;;;;;;;;4837240;28;20225;-75
2021/09/24 03:32:18;;;;;;;0.00;0.00;;;;;;;;;;4843930;28;20240;-72
2021/09/24 03:34:42;;;;;;;0.10;0.10;;;13.80;49.70;;;;;;4856096;28;20194;-73
2021/09/24 03:37:05;;;;;;;0.10;0.10;;;;;;;;;;4852181;28;20637;-74
2021/09/24 03:39:28;;;;;;;0.10;0.10;;;;;;;;;;4850635;28;20860;-74
2021/09/24 03:41:52;;;;;;;0.10;0.10;;;;;;;;;;4846777;28;20309;-74
2021/09/24 03:44:14;;;;;;;0.10;0.10;;;;;;;;;;4855733;28;20316;-73
2021/09/24 03:46:37;;;;;;;0.10;0.10;;;13.60;49.80;;;;;;4855241;28;20186;-73
2021/09/24 03:49:00;;;;;;;0.10;0.10;;;;;;;;;;4854946;28;20222;-73
2021/09/24 03:51:24;;;;;;;0.10;0.10;;;13.50;49.80;;;;;;4872251;28;20290;-73
2021/09/24 03:53:47;;;;;;;0.10;0.10;;;;;;;;;;4845831;28;20195;-73
2021/09/24 03:56:10;;;;;;;0.10;0.10;;;;;;;;;;4855400;28;20194;-73
2021/09/24 03:58:32;;;;;;;0.10;0.10;;;;;;;;;;4842848;28;20629;-76
2021/09/24 04:00:55;;;;;;;0.07;0.07;;;;;;;;;;4844169;28;20240;-73
2021/09/24 04:03:18;;;;;;;0.20;0.20;;;13.40;49.90;;;;;;4855827;28;20248;-81
2021/09/24 04:05:41;;;;;;;0.07;0.07;;;;;;;;;;4842271;28;20194;-81
2021/09/24 04:08:06;;;;;;;0.00;0.00;;;13.30;49.90;;;;;;4848369;28;20562;-80
2021/09/24 04:10:28;;;;;;;0.10;0.10;;;;;;;;;;4845412;28;20178;-80
2021/09/24 04:12:51;;;;;;;0.20;0.20;;;;;;;;;;4849063;28;20677;-73
2021/09/24 04:15:14;;;;;;;0.10;0.10;;;;;;;;;;4858515;28;20202;-80
2021/09/24 04:17:37;;;;;;;0.10;0.10;;;;;;;;;;4853279;28;20194;-79
2021/09/24 04:19:59;;;;;;;0.10;0.10;;;;;;;;;;4839644;28;20261;-80
2021/09/24 04:22:22;;;;;;;0.10;0.10;;;;;;;;;;4842519;28;20194;-80
2021/09/24 04:24:46;;;;;;;0.10;0.10;;;12.70;49.60;;;;;;4858957;28;20193;-76
2021/09/24 04:27:09;;;;;;;0.10;0.10;;;12.00;48.90;;;;;;4859588;28;20276;-79
2021/09/24 04:29:32;;;;;;;0.00;0.00;;;12.60;49.50;;;;;;4855593;28;20186;-81
2021/09/24 04:31:55;;;;;;;0.10;0.10;;;;;;;;;;4859190;28;20186;-79
2021/09/24 04:34:17;;;;;;;0.00;0.00;;;;;;;;;;4844522;28;20594;-79
2021/09/24 04:36:40;;;;;;;0.10;0.10;;;;;;;;;;4840126;28;20229;-80
2021/09/24 04:39:03;;;;;;;0.00;0.00;;;;;;;;;;4855638;28;20268;-77
2021/09/24 04:41:27;;;;;;;0.10;0.10;;;12.50;49.30;;;;;;4844615;28;20244;-76
2021/09/24 04:43:50;;;;;;;0.20;0.20;;;;;;;;;;4853499;28;20216;-80
2021/09/24 04:46:12;;;;;;;0.10;0.10;;;;;;;;;;4861212;28;20540;-78
2021/09/24 04:48:35;;;;;;;0.10;0.10;;;;;;;;;;4855602;28;20194;-80
2021/09/24 04:50:58;;;;;;;0.10;0.10;;;;;;;;;;4839138;28;20248;-79
2021/09/24 04:53:22;;;;;;;0.10;0.10;;;;;;;;;;4839199;28;20720;-77
2021/09/24 04:55:45;;;;;;;0.10;0.10;;;;;;;;;;4843489;28;20182;-73
2021/09/24 04:58:08;;;;;;;0.10;0.10;;;12.60;49.40;;;;;;4843688;28;20826;-83
2021/09/24 05:00:31;;;;;;;0.20;0.20;;;;;;;;;;4838087;28;20189;-77
2021/09/24 05:02:54;;;;;;;0.00;0.00;;;;;;;;;;4847762;28;20526;-84
2021/09/24 05:05:17;;;;;;;0.10;0.10;;;;;;;;;;4858398;28;20195;-82
2021/09/24 05:07:40;;;;;;;0.10;0.10;;;;;;;;;;4857096;28;20253;-81
2021/09/24 05:10:03;;;;;;;0.10;0.10;;;;;;;;;;4848103;28;20199;-81
2021/09/24 05:12:25;;;;;;;0.20;0.20;;;;;;;;;;4855153;28;20652;-80
2021/09/24 05:14:49;;;;;;;0.10;0.10;;;12.90;49.90;;;;;;4853030;28;20195;-82
2021/09/24 05:17:12;;;;;;;0.10;0.10;;;;;;;;;;4858093;28;20626;-72
2021/09/24 05:19:35;;;;;;;0.00;0.00;;;;;;;;;;4857305;28;20210;-76
2021/09/24 05:21:58;;;;;;;0.10;0.10;;;;;;;;;;4857809;28;20186;-74
2021/09/24 05:24:21;;;;;;;0.10;0.10;;;;;;;;;;4853742;28;20189;-73
2021/09/24 05:26:43;;;;;;;0.07;0.07;;;;;;;;;;4854136;28;20222;-72
2021/09/24 05:29:06;;;;;;;0.10;0.10;;;;;;;;;;4838525;28;20231;-73
2021/09/24 05:31:31;;;;;;;0.20;0.20;;;13.30;50.30;;;;;;4838985;28;20195;-73
2021/09/24 05:33:54;;;;;;;0.03;0.03;;;;;;;;;;4845757;28;20193;-75
2021/09/24 05:36:17;;;;;;;0.10;0.10;;;;;;;;;;4857696;28;20244;-72
2021/09/24 05:38:40;;;;;;;0.10;0.10;;;;;;;;;;4864549;28;20213;-72
2021/09/24 05:41:03;;;;;;;0.10;0.10;;;;;;;;;;4854642;28;20188;-76
2021/09/24 05:43:25;;;;;;;0.10;0.10;;;;;;;;;;4850186;28;20186;-73
2021/09/24 05:45:48;;;;;;;0.10;0.10;;;;;;;;;;4851519;28;20186;-75
2021/09/24 05:48:12;;;;;;;0.10;0.10;;;13.50;50.50;;;;;;4855307;28;20236;-78
2021/09/24 05:50:35;;;;;;;0.10;0.10;;;;;;;;;;4857071;28;20561;-78
2021/09/24 05:52:59;;;;;;;0.10;0.10;;;;;;;;;;4857834;28;20235;-82
2021/09/24 05:55:24;;;;;;;0.10;0.10;;;13.50;50.60;;;;;;4856373;28;20648;-73
2021/09/24 05:57:51;;;;;;;0.10;0.10;;;13.60;50.60;;;;;;4857587;28;20193;-80
2021/09/24 06:00:16;;;;;;;0.10;0.10;;;13.70;50.70;;;;;;4857660;28;20706;-73
2021/09/24 06:02:38;;;;;;;0.20;0.20;;;;;;;;;;4855705;28;20204;-72
2021/09/24 06:05:03;;;;;;;0.10;0.10;;;13.70;50.70;;;;;;4856702;28;20193;-79
2021/09/24 06:07:26;;;;;;;0.10;0.10;;;;;;;;;;4857212;28;20194;-72
2021/09/24 06:09:49;;;;;;;0.03;0.03;;;;;;;;;;4844368;28;20814;-71
2021/09/24 06:12:12;;;;;;;0.10;0.10;;;;;;;;;;4853021;28;20200;-72
2021/09/24 06:14:34;;;;;;;0.10;0.10;;;;;;;;;;4868888;28;20227;-73
2021/09/24 06:16:57;;;;;;;0.10;0.10;;;;;;;;;;4862074;28;20198;-74
2021/09/24 06:19:20;;;;;;;0.00;0.00;;;;;;;;;;4855445;28;20217;-73
2021/09/24 06:21:45;;;;;;;0.10;0.10;;;13.70;50.80;;;;;;4848049;28;20198;-73
2021/09/24 06:24:08;;;;;;;0.10;0.10;;;13.70;50.90;;;;;;4837978;28;20186;-72
2021/09/24 06:26:31;;;;;;;0.10;0.10;;;;;;;;;;4848664;28;20206;-73
2021/09/24 06:28:54;;;;;;;0.10;0.10;;;;;;;;;;4855867;28;20232;-73
2021/09/24 06:31:17;;;;;;;0.10;0.10;;;;;;;;;;4876055;28;20190;-73
2021/09/24 06:33:39;;;;;;;0.10;0.10;;;;;;;;;;4872416;28;20238;-73
2021/09/24 06:36:02;;;;;;;0.10;0.10;;;;;;;;;;4856720;28;20236;-74
2021/09/24 06:38:26;;;;;;;0.10;0.10;;;14.00;51.00;;;;;;4836852;28;20256;-72
2021/09/24 06:40:49;;;;;;;0.10;0.10;;;;;;;;;;4845067;28;20189;-75
2021/09/24 06:43:12;;;;;;;0.03;0.03;;;;;;;;;;4856717;28;20240;-73
2021/09/24 06:45:34;;;;;;;0.10;0.10;;;;;;;;;;4851376;28;20182;-73
2021/09/24 06:47:57;;;;;;;0.03;0.03;;;;;;;;;;4848219;28;20190;-72
2021/09/24 06:50:20;;;;;;;0.10;0.10;;;;;;;;;;4841450;28;20291;-71
2021/09/24 06:52:43;;;;;;;0.10;0.10;;;;;;;;;;4844008;28;20209;-75
2021/09/24 06:55:08;;;;;;;0.10;0.10;;;14.40;51.50;;;;;;4849300;28;20248;-81
2021/09/24 06:57:30;;;;;;;0.10;0.10;;;;;;;;;;4854128;28;20221;-83
2021/09/24 06:59:53;;;;;;;0.10;0.10;;;;;;;;;;4850812;28;20252;-73
2021/09/24 07:02:16;;;;;;;0.07;0.07;;;;;;;;;;4849067;28;20211;-74
2021/09/24 07:04:39;;;;;;;0.00;0.00;;;;;;;;;;4854696;28;20190;-72
2021/09/24 07:07:02;;;;;;;0.10;0.10;;;;;;;;;;4850926;28;20194;-74
2021/09/24 07:09:24;;;;;;;0.40;0.27;;;;;;;;;;4841078;28;20817;-80
2021/09/24 07:11:50;;;;;;;0.10;0.10;;;14.70;51.90;;;;;;4856035;28;20190;-86
2021/09/24 07:14:13;;;;;;;0.10;0.10;;;;;;;;;;4855941;28;20239;-79
2021/09/24 07:16:36;;;;;;;0.10;0.10;;;14.80;51.90;;;;;;4842926;28;20253;-80
2021/09/24 07:18:59;;;;;;;0.10;0.10;;;;;;;;;;4848602;28;20245;-79
2021/09/24 07:21:22;;;;;;;0.10;0.10;;;;;;;;;;4854119;28;20244;-73
2021/09/24 07:23:45;;;;;;;0.07;0.07;;;;;;;;;;4851857;28;20182;-86
2021/09/24 07:26:07;;;;;;;0.10;0.10;;;;;;;;;;4847000;28;20276;-80
2021/09/24 07:28:31;;;;;;;0.10;0.10;;;14.90;52.30;;;;;;4841566;28;20218;-80
2021/09/24 07:30:54;;;;;;;0.10;0.10;;;;;;;;;;4845008;28;20190;-75
2021/09/24 07:33:17;;;;;;;0.10;0.10;;;;;;;;;;4859306;28;20197;-75
2021/09/24 07:35:40;;;;;;;0.10;0.10;;;;;;;;;;4857245;28;20249;-79
2021/09/24 07:38:03;;;;;;;0.10;0.10;;;15.20;52.40;;;;;;4858595;28;20198;-80
2021/09/24 07:40:27;;;;;;;0.10;0.10;;;;;;;;;;4859219;28;20213;-74
2021/09/24 07:42:50;;;;;;;0.10;0.10;;;;;;;;;;4846965;28;20194;-81
2021/09/24 07:45:14;;;;;;;0.10;0.10;;;15.50;52.70;;;;;;4839777;28;20237;-73
2021/09/24 07:47:37;;;;;;;0.10;0.10;;;;;;;;;;4845172;28;20186;-78
2021/09/24 07:50:00;;;;;;;0.10;0.10;;;;;;;;;;4861654;28;20419;-82
2021/09/24 07:52:22;;;;;;;0.10;0.10;;;;;;;;;;4854454;28;20598;-79
2021/09/24 07:54:45;;;;;;;0.20;0.20;;;;;;;;;;4855719;28;20236;-72
2021/09/24 07:57:08;;;;;;;0.20;0.20;;;;;;;;;;4845201;28;20228;-72
2021/09/24 07:59:31;;;;;;;0.20;0.20;;;;;;;;;;4857330;28;20638;-76
2021/09/24 08:01:55;;;;;;;0.20;0.20;;;16.30;53.50;;;;;;4837932;28;20186;-73
2021/09/24 08:04:17;;;;;;;0.10;0.10;;;;;;;;;;4839111;28;20194;-74
2021/09/24 08:06:40;;;;;;;0.10;0.10;;;;;;;;;;4856928;28;20296;-74
2021/09/24 08:09:03;;;;;;;0.20;0.20;;;;;;;;;;4858496;28;20194;-74
2021/09/24 08:11:26;;;;;;;0.20;0.20;;;;;;;;;;4842732;28;20245;-73
2021/09/24 08:13:48;;;;;;;0.10;0.10;;;;;;;;;;4838890;28;20198;-76
2021/09/24 08:16:11;;;;;;;0.13;0.13;;;;;;;;;;4856742;28;20263;-82
2021/09/24 08:18:37;;;;;;;0.30;0.30;;;16.30;53.90;;;;;;4858754;28;20182;-73
2021/09/24 08:21:00;;;;;;;0.10;0.10;;;;;;;;;;4870557;28;20682;-73
2021/09/24 08:23:23;;;;;;;0.20;0.20;;;;;;;;;;4857465;28;20240;-74
2021/09/24 08:25:48;;;;;;;0.17;0.17;;;;;;;;;;4845512;28;20237;-74
2021/09/24 08:28:11;;;;;;;0.10;0.10;;;;;;;;;;4856432;28;20225;-73
2021/09/24 08:30:35;;;;;;;0.20;0.20;;;15.90;53.70;;;;;;4847904;28;20663;-76
2021/09/24 08:33:00;;;;;;;0.20;0.20;;;;;;;;;;4838713;28;20183;-74
2021/09/24 08:35:24;;;;;;;0.10;0.10;;;15.90;53.60;;;;;;4854800;28;20244;-74
2021/09/24 08:37:49;;;;;;;0.20;0.20;;;;;;;;;;4855551;28;20233;-72
2021/09/24 08:40:12;;;;;;;0.10;0.10;;;15.70;53.60;;;;;;4842679;28;20778;-75
2021/09/24 08:42:38;;;;;;;0.20;0.20;;;15.70;53.50;;;;;;4851898;28;20248;-73
2021/09/24 08:45:01;;;;;;;0.20;0.20;;;;;;;;;;4855421;28;20198;-74
2021/09/24 08:47:24;;;;;;;0.20;0.20;;;;;;;;;;4865043;28;20304;-76
2021/09/24 08:49:47;;;;;;;0.20;0.20;;;16.30;53.70;;;;;;4858494;28;20246;-74
2021/09/24 08:52:12;;;;;;;0.20;0.20;;;16.50;53.80;;;;;;4852685;28;20645;-74
2021/09/24 08:54:35;;;;;;;0.10;0.10;;;;;;;;;;4837974;28;20191;-73
2021/09/24 08:56:58;;;;;;;0.20;0.20;;;;;;;;;;4852045;28;20190;-72
2021/09/24 08:59:21;;;;;;;0.20;0.20;;;;;;;;;;4857542;28;20279;-74
2021/09/24 09:01:58;;;;;;;0.20;0.13;;;16.90;54.20;;;;;;4855845;28;20656;-72
2021/09/24 09:04:33;;;;;;;0.20;0.20;;;17.20;54.40;;;;;;4853972;28;20214;-74
2021/09/24 09:07:04;;;;;;;0.10;0.10;;;17.40;54.60;;;;;;4843905;28;20186;-73
2021/09/24 09:09:34;;;;;;;0.20;0.20;;;17.60;54.80;;;;;;4838587;28;20198;-76
2021/09/24 09:11:57;;;;;;;0.20;0.20;;;;;;;;;;4844938;28;20207;-78
2021/09/24 09:14:20;;;;;;;0.20;0.20;;;17.70;55.00;;;;;;4837302;28;20233;-84
2021/09/24 09:16:42;;;;;;;0.10;0.10;;;;;;;;;;4852175;28;20601;-86
2021/09/24 09:19:08;;;;;;;0.10;0.10;;;17.50;54.80;;;;;;4857591;28;20202;-76
2021/09/24 09:21:30;;;;;;;0.10;0.10;;;;;;;;;;4857613;28;20663;-75
2021/09/24 09:23:54;;;;;;;0.20;0.20;;;;;;;;;;4857080;28;20182;-74
2021/09/24 09:26:19;;;;;;;0.20;0.20;;;17.60;54.90;;;;;;4856787;28;20264;-73
2021/09/24 09:28:50;;;;;;;0.30;0.30;;;17.70;55.10;;;;;;4854907;28;20217;-72
2021/09/24 09:31:20;;;;;;;0.10;0.10;;;17.60;55.10;;;;;;4856995;28;20601;-76
2021/09/24 09:33:43;;;;;;;0.13;0.13;;;;;;;;;;4855405;28;20294;-82
2021/09/24 09:36:06;;;;;;;0.10;0.10;;;;;;;;;;4854778;28;20799;-77
2021/09/24 09:38:31;;;;;;;0.20;0.20;;;18.40;55.60;;;;;;4830891;28;20241;-73
2021/09/24 09:40:57;;;;;;;0.20;0.20;;;18.90;56.00;;;;;;4848976;28;20260;-73
2021/09/24 09:43:30;;;;;;;0.20;0.20;;;19.20;55.80;;;;;;4854461;28;20272;-77
2021/09/24 09:45:53;;;;;;;0.20;0.20;;;;;;;;;;4855833;28;20572;-73
2021/09/24 09:48:16;;;;;;;0.20;0.20;;;;;;;;;;4855125;28;20181;-73
2021/09/24 09:50:40;;;;;;;0.10;0.10;;;18.80;56.20;;;;;;4843937;28;20245;-73
2021/09/24 09:53:07;;;;;;;0.50;0.50;;;18.50;56.10;;;;;;4850338;28;20260;-74
2021/09/24 09:55:31;;;;;;;0.10;0.10;;;18.50;56.10;;;;;;4848781;28;20191;-73
2021/09/24 09:57:59;;;;;;;0.00;0.00;;;18.50;56.20;;;;;;4838373;28;20273;-72
2021/09/24 10:00:23;;;;;;;0.23;0.23;;;18.50;56.20;;;;;;4836687;28;20226;-73
2021/09/24 10:02:49;;;;;;;0.10;0.10;;;;;;;;;;4852316;28;20230;-73
2021/09/24 10:05:32;;;;;;;0.10;0.10;;;18.40;56.20;;;;;;4837195;28;20245;-74
2021/09/24 10:07:55;;;;;;;0.23;0.23;;;;;;;;;;4850589;28;20174;-78
2021/09/24 10:10:19;;;;;;;0.30;0.30;;;;;;;;;;4843609;28;20199;-78
2021/09/24 10:12:43;;;;;;;0.10;0.10;;;18.20;56.00;;;;;;4844401;28;20194;-76
2021/09/24 10:15:08;;;;;;;0.20;0.20;;;18.40;55.90;;;;;;4845351;28;20193;-78
2021/09/24 10:17:33;;;;;;;0.10;0.10;;;18.90;56.50;;;;;;4854658;28;20182;-79
2021/09/24 10:19:56;;;;;;;0.10;0.10;;;19.20;56.60;;;;;;4851891;28;20195;-74
2021/09/24 10:22:18;;;;;;;0.20;0.20;;;;;;;;;;4838235;28;20200;-75
2021/09/24 10:24:42;;;;;;;0.10;0.10;;;19.70;56.80;;;;;;4853176;28;20711;-73
2021/09/24 10:27:07;;;;;;;0.13;0.13;;;19.90;57.00;;;;;;4846326;28;20211;-79
2021/09/24 10:29:32;;;;;;;0.30;0.30;;;19.80;57.10;;;;;;4843201;28;20198;-75
2021/09/24 10:31:56;;;;;;;0.10;0.10;;;;;;;;;;4844988;28;20183;-73
2021/09/24 10:34:22;;;;;;;0.30;0.30;;;19.60;57.00;;;;;;4837102;28;20187;-78
2021/09/24 10:36:48;;;;;;;0.10;0.10;;;19.70;57.10;;;;;;4845631;28;20189;-81
2021/09/24 10:39:34;;;;;;;0.20;0.20;;;19.90;57.30;;;;;;4845853;28;20190;-76
2021/09/24 10:42:29;;;;;;;0.20;0.20;;;20.00;57.60;;;;;;4855387;28;20687;-81
2021/09/24 10:45:01;;;;;;;0.17;0.17;;;20.10;57.50;;;;;;4798500;28;20191;-80
2021/09/24 10:47:48;;;;;;;0.20;0.20;;;20.30;57.60;;;;;;4854707;28;20197;-78
2021/09/24 10:50:45;;;;;;;0.20;0.20;;;20.80;57.80;;;;;;4837312;28;20179;-81
2021/09/24 10:53:17;;;;;;;0.40;0.40;;;21.40;58.40;;;;;;4846801;28;20586;-80
2021/09/24 10:55:43;;;;;;;0.10;0.10;;;21.30;58.40;;;;;;4855401;28;20236;-77
2021/09/24 10:58:06;;;;;;;0.20;0.20;;;;;;;;;;4856674;28;20240;-77
2021/09/24 11:00:30;;;;;;;0.73;0.73;;;20.50;58.10;;;;;;4854355;28;20217;-73
2021/09/24 11:03:08;;;;;;;0.10;0.10;;;20.10;58.00;;;;;;4836283;28;20226;-80
2021/09/24 11:05:57;;;;;;;0.20;0.20;;;19.60;57.70;;;;;;4845886;28;20323;-74
2021/09/24 11:08:43;;;;;;;0.10;0.10;;;19.20;57.40;;;;;;4851987;28;20764;-77
2021/09/24 11:11:24;;;;;;;0.33;0.23;;;18.70;57.20;;;;;;4838651;28;20187;-83
2021/09/24 11:13:49;;;;;;;0.30;0.30;;;18.70;57.10;;;;;;4850845;28;20711;-75
2021/09/24 11:16:13;;;;;;;0.10;0.10;;;18.90;57.10;;;;;;4853652;28;20275;-76
2021/09/24 11:19:01;;;;;;;0.10;0.10;;;19.00;57.20;;;;;;4855981;28;20235;-76
2021/09/24 11:22:02;;;;;;;0.10;0.10;;;19.20;57.20;;;;;;4836908;28;20210;-74
2021/09/24 11:24:31;;;;;;;0.20;0.20;;;19.00;57.10;;;;;;4839230;28;20744;-74
2021/09/24 11:26:56;;;;;;;0.10;0.10;;;18.90;57.10;;;;;;4855956;28;20197;-75
2021/09/24 11:29:22;;;;;;;0.10;0.10;;;;;;;;;;4839767;28;20700;-74
2021/09/24 11:32:04;;;;;;;0.10;0.10;;;18.60;57.10;;;;;;4843108;28;20190;-80
2021/09/24 11:34:55;;;;;;;0.20;0.20;;;18.70;57.00;;;;;;4854950;28;20255;-75
2021/09/24 11:37:19;;;;;;;0.10;0.10;;;18.60;56.90;;;;;;4855292;28;20229;-79
2021/09/24 11:39:44;;;;;;;0.27;0.27;;;18.40;56.80;;;;;;4847782;28;20190;-76
2021/09/24 11:42:10;;;;;;;0.10;0.10;;;18.50;56.90;;;;;;4855774;28;20231;-75
2021/09/24 11:44:54;;;;;;;0.00;0.00;;;18.50;56.90;;;;;;4846442;28;20285;-75
2021/09/24 11:47:25;;;;;;;0.17;0.17;;;18.40;56.90;;;;;;4839256;28;20190;-75
2021/09/24 11:50:01;;;;;;;0.10;0.10;;;18.50;56.90;;;;;;4868599;28;20219;-78
2021/09/24 11:52:25;;;;;;;0.17;0.17;;;18.60;57.00;;;;;;4858212;28;20708;-79
2021/09/24 11:54:49;;;;;;;0.10;0.10;;;18.70;57.20;;;;;;4854692;28;20190;-79
2021/09/24 11:57:15;;;;;;;0.17;0.17;;;18.90;57.20;;;;;;4841536;28;20844;-78
2021/09/24 11:59:37;;;;;;;0.20;0.20;;;;;;;;;;4850609;28;20248;-75
2021/09/24 12:02:00;;;;;;;0.10;0.10;;;;;;;;;;4840017;28;20218;-75
2021/09/24 12:04:23;;;;;;;0.10;0.10;;;;;;;;;;4849429;28;20225;-79
2021/09/24 12:06:47;;;;;;;0.10;0.10;;;;;;;;;;4843984;28;20246;-77
2021/09/24 12:09:12;;;;;;;0.20;0.20;;;22.20;58.90;;;;;;4849502;28;20195;-79
2021/09/24 12:11:45;;;;;;;0.20;0.20;;;24.10;60.20;;;;;;4844367;28;20237;-82
2021/09/24 12:14:09;;;;;;;0.20;0.20;;;;;;;;;;4846117;28;20572;-77
2021/09/24 12:16:33;;;;;;;0.30;0.30;;;25.30;46.30;;;;;;4837843;28;20253;-84
2021/09/24 12:18:58;;;;;;;0.20;0.20;;;25.80;46.60;;;;;;4841605;28;20186;-82
2021/09/24 12:21:25;;;;;;;0.20;0.20;;;25.80;46.80;;;;;;4845516;28;20289;-75
2021/09/24 12:23:48;;;;;;;0.30;0.30;;;;;;;;;;4853883;28;20193;-85
2021/09/24 12:26:11;;;;;;;0.20;0.20;;;24.80;61.40;;;;;;4844458;28;20730;-77
2021/09/24 12:28:36;;;;;;;0.50;0.50;;;25.60;46.60;;;;;;4841999;28;20222;-82
2021/09/24 12:30:59;;;;;;;0.30;0.30;;;;;;;;;;4850854;28;20198;-80
2021/09/24 12:33:23;;;;;;;0.20;0.20;;;25.70;46.80;;;;;;4848543;28;20250;-82
2021/09/24 12:35:57;;;;;;;0.20;0.20;;;25.70;46.80;;;;;;4855383;28;20186;-76
2021/09/24 12:38:27;;;;;;;0.30;0.30;;;27.20;47.10;;;;;;4839619;28;20698;-78
2021/09/24 12:41:13;;;;;;;0.30;0.30;;;28.70;48.00;;;;;;4838494;28;20193;-85
2021/09/24 12:43:38;;;;;;;0.30;0.30;;;30.70;48.80;;;;;;4856457;28;20654;-82
2021/09/24 12:48:58;;;;;;;0.20;0.20;;;34.00;50.20;;;;;;4967633;27;20786;-83
2021/09/24 12:51:23;;;;;;;0.33;0.33;;;35.10;50.70;;;;;;4949532;28;20718;-78
2021/09/24 12:53:53;;;;;;;1.07;0.77;;;35.40;50.90;;;;;;4950187;28;20179;-79
2021/09/24 12:56:22;;;;;;;0.50;0.50;;;35.40;51.00;;;;;;4950973;28;20270;-82
2021/09/24 12:58:44;;;;;;;0.70;0.67;;;;;;;;;;4951046;28;20715;-73
2021/09/24 13:01:18;;;;;;;0.73;0.67;;;35.20;50.90;;;;;;4929219;28;20194;-81
2021/09/24 13:03:42;;;;;;;0.50;0.40;;;;;;;;;;4949650;28;20213;-81
2021/09/24 13:06:05;;;;;;;0.77;0.63;;;34.00;50.60;;;;;;4950424;28;20287;-76
2021/09/24 13:08:29;;;;;;;0.90;0.70;;;33.60;50.50;;;;;;4943753;28;20267;-76
2021/09/24 13:10:52;;;;;;;0.53;0.53;;;;;;;;;;4947540;27;20186;-74
2021/09/24 13:13:18;;;;;;;0.73;0.60;;;;;;;;;;4949135;28;20187;-78
2021/09/24 13:15:41;;;;;;;0.40;0.33;;;;;;;;;;4952436;27;20194;-83
2021/09/24 13:18:07;;;;;;;0.27;0.27;;;;;;;;;;4932767;28;20191;-79
2021/09/24 13:20:30;;;;;;;0.50;0.50;;;;;;;;;;4950234;28;20251;-81
2021/09/24 13:22:54;;;;;;;0.60;0.53;;;29.00;48.70;;;;;;4930739;28;20253;-77
2021/09/24 13:25:17;;;;;;;0.20;0.20;;;;;;;;;;4931758;28;20581;-78
2021/09/24 13:27:40;;;;;;;0.57;0.53;;;;;;;;;;4931544;28;20216;-79
2021/09/24 13:30:03;;;;;;;0.43;0.40;;;;;;;;;;4948165;27;20662;-83
2021/09/24 13:32:27;;;;;;;0.70;0.60;;;26.20;47.70;;;;;;4930218;28;20256;-79
2021/09/24 13:35:07;;;;;;;1.60;0.70;;;25.60;47.40;;;;;;4914226;28;20196;-78
2021/09/24 13:37:29;;;;;;;0.87;0.73;;;;;;;;;;4932227;28;20174;-85
2021/09/24 13:40:06;;;;;;;1.43;0.70;;;24.60;61.90;;;;;;4936267;28;20194;-81
2021/09/24 13:42:29;;;;;;;0.70;0.63;;;;;;;;;;4949699;28;20176;-77
2021/09/24 13:44:52;;;;;;;0.40;0.40;;;;;;;;;;4948193;28;20260;-79